sensor_id;sensor_type;location;lat;lon;timestamp;P1;durP1;ratioP1;P2;durP2;ratioP2
47353;SDS011;50657;48.830;2.282;2022-08-26T00:00:35;0.65;;;0.65;;
47353;SDS011;50657;48.830;2.282;2022-08-26T00:03:02;1.38;;;0.10;;
47353;SDS011;50657;48.830;2.282;2022-08-26T00:05:31;1.15;;;0.10;;
47353;SDS011;50657;48.830;2.282;2022-08-26T00:07:58;2.25;;;0.10;;
47353;SDS011;50657;48.830;2.282;2022-08-26T00:10:25;1.55;;;1.25;;
47353;SDS011;50657;48.830;2.282;2022-08-26T00:12:53;2.20;;;0.10;;
47353;SDS011;50657;48.830;2.282;2022-08-26T00:15:20;0.90;;;0.10;;
47353;SDS011;50657;48.830;2.282;2022-08-26T00:17:48;0.57;;;0.38;;
47353;SDS011;50657;48.830;2.282;2022-08-26T00:20:16;3.30;;;0.10;;
47353;SDS011;50657;48.830;2.282;2022-08-26T00:22:46;1.65;;;0.20;;
47353;SDS011;50657;48.830;2.282;2022-08-26T00:25:14;0.20;;;0.20;;
47353;SDS011;50657;48.830;2.282;2022-08-26T00:27:42;0.75;;;0.73;;
47353;SDS011;50657;48.830;2.282;2022-08-26T00:30:11;1.75;;;0.10;;
47353;SDS011;50657;48.830;2.282;2022-08-26T00:32:40;0.63;;;0.32;;
47353;SDS011;50657;48.830;2.282;2022-08-26T00:35:07;1.95;;;0.55;;
47353;SDS011;50657;48.830;2.282;2022-08-26T00:37:36;4.22;;;0.50;;
47353;SDS011;50657;48.830;2.282;2022-08-26T00:40:05;0.88;;;0.20;;
47353;SDS011;50657;48.830;2.282;2022-08-26T00:42:32;0.57;;;0.10;;
47353;SDS011;50657;48.830;2.282;2022-08-26T00:44:59;0.10;;;0.10;;
47353;SDS011;50657;48.830;2.282;2022-08-26T00:47:27;0.20;;;0.10;;
47353;SDS011;50657;48.830;2.282;2022-08-26T00:49:59;2.13;;;0.00;;
47353;SDS011;50657;48.830;2.282;2022-08-26T00:52:31;0.82;;;0.10;;
47353;SDS011;50657;48.830;2.282;2022-08-26T00:54:59;0.55;;;0.10;;
47353;SDS011;50657;48.830;2.282;2022-08-26T00:57:32;0.30;;;0.10;;
47353;SDS011;50657;48.830;2.282;2022-08-26T01:00:03;0.10;;;0.10;;
47353;SDS011;50657;48.830;2.282;2022-08-26T01:02:33;0.28;;;0.20;;
47353;SDS011;50657;48.830;2.282;2022-08-26T01:05:00;0.10;;;0.10;;
47353;SDS011;50657;48.830;2.282;2022-08-26T01:07:31;1.42;;;0.17;;
47353;SDS011;50657;48.830;2.282;2022-08-26T01:09:59;0.90;;;0.10;;
47353;SDS011;50657;48.830;2.282;2022-08-26T01:12:30;1.95;;;0.20;;
47353;SDS011;50657;48.830;2.282;2022-08-26T01:15:03;1.17;;;0.10;;
47353;SDS011;50657;48.830;2.282;2022-08-26T01:17:31;3.30;;;0.20;;
47353;SDS011;50657;48.830;2.282;2022-08-26T01:20:00;1.27;;;0.10;;
47353;SDS011;50657;48.830;2.282;2022-08-26T01:22:36;0.47;;;0.10;;
47353;SDS011;50657;48.830;2.282;2022-08-26T01:25:11;2.28;;;0.32;;
47353;SDS011;50657;48.830;2.282;2022-08-26T01:27:39;0.43;;;0.30;;
47353;SDS011;50657;48.830;2.282;2022-08-26T01:30:06;0.75;;;0.75;;
47353;SDS011;50657;48.830;2.282;2022-08-26T01:32:35;1.75;;;0.17;;
47353;SDS011;50657;48.830;2.282;2022-08-26T01:35:04;1.58;;;0.40;;
47353;SDS011;50657;48.830;2.282;2022-08-26T01:37:33;1.40;;;0.20;;
47353;SDS011;50657;48.830;2.282;2022-08-26T01:40:05;0.77;;;0.10;;
47353;SDS011;50657;48.830;2.282;2022-08-26T01:42:35;0.40;;;0.20;;
47353;SDS011;50657;48.830;2.282;2022-08-26T01:45:04;0.90;;;0.30;;
47353;SDS011;50657;48.830;2.282;2022-08-26T01:47:35;5.40;;;0.30;;
47353;SDS011;50657;48.830;2.282;2022-08-26T01:50:05;0.90;;;0.77;;
47353;SDS011;50657;48.830;2.282;2022-08-26T01:52:38;1.25;;;0.35;;
47353;SDS011;50657;48.830;2.282;2022-08-26T01:55:07;1.50;;;0.43;;
47353;SDS011;50657;48.830;2.282;2022-08-26T01:57:37;2.75;;;0.85;;
47353;SDS011;50657;48.830;2.282;2022-08-26T02:00:05;1.85;;;0.70;;
47353;SDS011;50657;48.830;2.282;2022-08-26T02:02:37;1.20;;;0.77;;
47353;SDS011;50657;48.830;2.282;2022-08-26T02:05:05;1.08;;;0.45;;
47353;SDS011;50657;48.830;2.282;2022-08-26T02:07:35;2.42;;;0.57;;
47353;SDS011;50657;48.830;2.282;2022-08-26T02:10:05;0.70;;;0.55;;
47353;SDS011;50657;48.830;2.282;2022-08-26T02:12:32;1.35;;;0.70;;
47353;SDS011;50657;48.830;2.282;2022-08-26T02:15:00;1.60;;;0.40;;
47353;SDS011;50657;48.830;2.282;2022-08-26T02:17:32;1.70;;;0.82;;
47353;SDS011;50657;48.830;2.282;2022-08-26T02:20:03;2.42;;;0.45;;
47353;SDS011;50657;48.830;2.282;2022-08-26T02:22:31;0.60;;;0.60;;
47353;SDS011;50657;48.830;2.282;2022-08-26T02:25:04;6.53;;;0.93;;
47353;SDS011;50657;48.830;2.282;2022-08-26T02:27:35;1.00;;;0.55;;
47353;SDS011;50657;48.830;2.282;2022-08-26T02:30:04;0.75;;;0.73;;
47353;SDS011;50657;48.830;2.282;2022-08-26T02:32:35;1.20;;;1.10;;
47353;SDS011;50657;48.830;2.282;2022-08-26T02:35:02;2.40;;;0.65;;
47353;SDS011;50657;48.830;2.282;2022-08-26T02:37:30;1.75;;;1.00;;
47353;SDS011;50657;48.830;2.282;2022-08-26T02:39:58;1.05;;;0.60;;
47353;SDS011;50657;48.830;2.282;2022-08-26T02:42:26;1.50;;;1.30;;
47353;SDS011;50657;48.830;2.282;2022-08-26T02:44:53;1.63;;;1.05;;
47353;SDS011;50657;48.830;2.282;2022-08-26T02:47:20;2.40;;;0.90;;
47353;SDS011;50657;48.830;2.282;2022-08-26T02:49:47;4.10;;;2.05;;
47353;SDS011;50657;48.830;2.282;2022-08-26T02:52:14;1.55;;;1.30;;
47353;SDS011;50657;48.830;2.282;2022-08-26T02:54:42;1.73;;;0.93;;
47353;SDS011;50657;48.830;2.282;2022-08-26T02:57:10;1.92;;;0.88;;
47353;SDS011;50657;48.830;2.282;2022-08-26T02:59:37;3.63;;;1.20;;
47353;SDS011;50657;48.830;2.282;2022-08-26T03:02:04;1.65;;;1.05;;
47353;SDS011;50657;48.830;2.282;2022-08-26T03:04:32;5.72;;;1.58;;
47353;SDS011;50657;48.830;2.282;2022-08-26T03:06:59;4.10;;;1.40;;
47353;SDS011;50657;48.830;2.282;2022-08-26T03:09:27;1.30;;;1.20;;
47353;SDS011;50657;48.830;2.282;2022-08-26T03:11:54;3.08;;;1.23;;
47353;SDS011;50657;48.830;2.282;2022-08-26T03:14:23;1.58;;;1.48;;
47353;SDS011;50657;48.830;2.282;2022-08-26T03:16:51;2.60;;;1.38;;
47353;SDS011;50657;48.830;2.282;2022-08-26T03:19:19;3.33;;;1.88;;
47353;SDS011;50657;48.830;2.282;2022-08-26T03:21:47;2.55;;;2.15;;
47353;SDS011;50657;48.830;2.282;2022-08-26T03:24:14;4.07;;;2.33;;
47353;SDS011;50657;48.830;2.282;2022-08-26T03:26:42;2.25;;;1.92;;
47353;SDS011;50657;48.830;2.282;2022-08-26T03:29:09;3.00;;;2.20;;
47353;SDS011;50657;48.830;2.282;2022-08-26T03:31:55;2.05;;;1.67;;
47353;SDS011;50657;48.830;2.282;2022-08-26T03:34:23;2.60;;;2.35;;
47353;SDS011;50657;48.830;2.282;2022-08-26T03:36:50;3.00;;;2.45;;
47353;SDS011;50657;48.830;2.282;2022-08-26T03:39:17;2.25;;;1.77;;
47353;SDS011;50657;48.830;2.282;2022-08-26T03:41:44;2.45;;;2.25;;
47353;SDS011;50657;48.830;2.282;2022-08-26T03:44:12;2.50;;;2.03;;
47353;SDS011;50657;48.830;2.282;2022-08-26T03:46:39;1.63;;;1.52;;
47353;SDS011;50657;48.830;2.282;2022-08-26T03:49:07;3.05;;;2.72;;
47353;SDS011;50657;48.830;2.282;2022-08-26T03:51:35;2.97;;;2.30;;
47353;SDS011;50657;48.830;2.282;2022-08-26T03:54:04;2.17;;;2.00;;
47353;SDS011;50657;48.830;2.282;2022-08-26T03:56:32;2.95;;;2.45;;
47353;SDS011;50657;48.830;2.282;2022-08-26T03:58:59;5.28;;;2.00;;
47353;SDS011;50657;48.830;2.282;2022-08-26T04:01:27;4.43;;;3.35;;
47353;SDS011;50657;48.830;2.282;2022-08-26T04:03:55;3.05;;;2.33;;
47353;SDS011;50657;48.830;2.282;2022-08-26T04:06:28;2.17;;;1.77;;
47353;SDS011;50657;48.830;2.282;2022-08-26T04:08:57;4.47;;;2.15;;
47353;SDS011;50657;48.830;2.282;2022-08-26T04:11:26;3.33;;;2.35;;
47353;SDS011;50657;48.830;2.282;2022-08-26T04:13:56;5.05;;;2.40;;
47353;SDS011;50657;48.830;2.282;2022-08-26T04:16:25;2.90;;;2.70;;
47353;SDS011;50657;48.830;2.282;2022-08-26T04:18:54;2.92;;;2.65;;
47353;SDS011;50657;48.830;2.282;2022-08-26T04:21:22;2.95;;;2.67;;
47353;SDS011;50657;48.830;2.282;2022-08-26T04:23:50;3.55;;;3.13;;
47353;SDS011;50657;48.830;2.282;2022-08-26T04:26:18;7.90;;;3.08;;
47353;SDS011;50657;48.830;2.282;2022-08-26T04:28:46;3.30;;;3.00;;
47353;SDS011;50657;48.830;2.282;2022-08-26T04:31:14;3.97;;;3.47;;
47353;SDS011;50657;48.830;2.282;2022-08-26T04:33:43;3.05;;;2.85;;
47353;SDS011;50657;48.830;2.282;2022-08-26T04:36:12;5.88;;;3.28;;
47353;SDS011;50657;48.830;2.282;2022-08-26T04:38:39;3.25;;;2.70;;
47353;SDS011;50657;48.830;2.282;2022-08-26T04:41:08;2.97;;;2.75;;
47353;SDS011;50657;48.830;2.282;2022-08-26T04:43:36;4.93;;;3.38;;
47353;SDS011;50657;48.830;2.282;2022-08-26T04:46:04;3.58;;;3.28;;
47353;SDS011;50657;48.830;2.282;2022-08-26T04:48:32;3.72;;;3.42;;
47353;SDS011;50657;48.830;2.282;2022-08-26T04:50:59;4.22;;;3.83;;
47353;SDS011;50657;48.830;2.282;2022-08-26T04:53:27;4.32;;;3.58;;
47353;SDS011;50657;48.830;2.282;2022-08-26T04:55:54;3.88;;;3.22;;
47353;SDS011;50657;48.830;2.282;2022-08-26T04:58:23;5.82;;;3.58;;
47353;SDS011;50657;48.830;2.282;2022-08-26T05:00:51;6.90;;;4.15;;
47353;SDS011;50657;48.830;2.282;2022-08-26T05:03:21;4.93;;;4.07;;
47353;SDS011;50657;48.830;2.282;2022-08-26T05:05:49;5.10;;;3.50;;
47353;SDS011;50657;48.830;2.282;2022-08-26T05:08:17;5.57;;;3.35;;
47353;SDS011;50657;48.830;2.282;2022-08-26T05:10:47;5.00;;;4.20;;
47353;SDS011;50657;48.830;2.282;2022-08-26T05:13:17;5.25;;;3.70;;
47353;SDS011;50657;48.830;2.282;2022-08-26T05:15:46;4.72;;;3.28;;
47353;SDS011;50657;48.830;2.282;2022-08-26T05:18:15;8.10;;;4.20;;
47353;SDS011;50657;48.830;2.282;2022-08-26T05:20:44;4.68;;;3.45;;
47353;SDS011;50657;48.830;2.282;2022-08-26T05:23:14;9.82;;;3.58;;
47353;SDS011;50657;48.830;2.282;2022-08-26T05:25:42;5.78;;;4.13;;
47353;SDS011;50657;48.830;2.282;2022-08-26T05:28:11;8.73;;;4.38;;
47353;SDS011;50657;48.830;2.282;2022-08-26T05:30:40;6.80;;;3.95;;
47353;SDS011;50657;48.830;2.282;2022-08-26T05:33:09;6.28;;;5.00;;
47353;SDS011;50657;48.830;2.282;2022-08-26T05:35:37;5.32;;;4.82;;
47353;SDS011;50657;48.830;2.282;2022-08-26T05:38:05;7.93;;;4.97;;
47353;SDS011;50657;48.830;2.282;2022-08-26T05:40:33;5.30;;;4.75;;
47353;SDS011;50657;48.830;2.282;2022-08-26T05:43:01;5.00;;;4.45;;
47353;SDS011;50657;48.830;2.282;2022-08-26T05:45:34;5.90;;;4.35;;
47353;SDS011;50657;48.830;2.282;2022-08-26T05:48:02;4.95;;;4.20;;
47353;SDS011;50657;48.830;2.282;2022-08-26T05:50:36;8.05;;;4.90;;
47353;SDS011;50657;48.830;2.282;2022-08-26T05:53:04;7.22;;;4.78;;
47353;SDS011;50657;48.830;2.282;2022-08-26T05:55:31;7.60;;;4.28;;
47353;SDS011;50657;48.830;2.282;2022-08-26T05:57:59;8.02;;;5.65;;
47353;SDS011;50657;48.830;2.282;2022-08-26T06:00:26;4.95;;;4.07;;
47353;SDS011;50657;48.830;2.282;2022-08-26T06:02:53;6.45;;;5.30;;
47353;SDS011;50657;48.830;2.282;2022-08-26T06:05:20;9.63;;;5.20;;
47353;SDS011;50657;48.830;2.282;2022-08-26T06:07:49;7.13;;;5.57;;
47353;SDS011;50657;48.830;2.282;2022-08-26T06:10:33;7.90;;;5.03;;
47353;SDS011;50657;48.830;2.282;2022-08-26T06:13:02;6.43;;;5.30;;
47353;SDS011;50657;48.830;2.282;2022-08-26T06:15:29;8.95;;;6.72;;
47353;SDS011;50657;48.830;2.282;2022-08-26T06:17:56;7.18;;;4.90;;
47353;SDS011;50657;48.830;2.282;2022-08-26T06:20:23;8.80;;;6.03;;
47353;SDS011;50657;48.830;2.282;2022-08-26T06:22:52;7.18;;;5.43;;
47353;SDS011;50657;48.830;2.282;2022-08-26T06:25:37;5.47;;;4.95;;
47353;SDS011;50657;48.830;2.282;2022-08-26T06:28:04;11.57;;;6.25;;
47353;SDS011;50657;48.830;2.282;2022-08-26T06:30:32;9.80;;;5.68;;
47353;SDS011;50657;48.830;2.282;2022-08-26T06:33:03;10.73;;;5.60;;
47353;SDS011;50657;48.830;2.282;2022-08-26T06:35:34;14.57;;;5.30;;
47353;SDS011;50657;48.830;2.282;2022-08-26T06:38:04;7.03;;;4.63;;
47353;SDS011;50657;48.830;2.282;2022-08-26T06:40:32;6.93;;;5.10;;
47353;SDS011;50657;48.830;2.282;2022-08-26T06:43:00;10.70;;;5.25;;
47353;SDS011;50657;48.830;2.282;2022-08-26T06:45:27;12.63;;;5.47;;
47353;SDS011;50657;48.830;2.282;2022-08-26T06:47:54;6.30;;;4.10;;
47353;SDS011;50657;48.830;2.282;2022-08-26T06:50:21;6.13;;;4.72;;
47353;SDS011;50657;48.830;2.282;2022-08-26T06:52:49;8.15;;;4.50;;
47353;SDS011;50657;48.830;2.282;2022-08-26T06:55:18;7.35;;;3.47;;
47353;SDS011;50657;48.830;2.282;2022-08-26T06:57:45;5.88;;;3.72;;
47353;SDS011;50657;48.830;2.282;2022-08-26T07:00:12;6.97;;;3.72;;
47353;SDS011;50657;48.830;2.282;2022-08-26T07:02:40;4.97;;;3.65;;
47353;SDS011;50657;48.830;2.282;2022-08-26T07:05:07;5.35;;;3.40;;
47353;SDS011;50657;48.830;2.282;2022-08-26T07:07:35;5.38;;;4.32;;
47353;SDS011;50657;48.830;2.282;2022-08-26T07:10:03;10.55;;;2.40;;
47353;SDS011;50657;48.830;2.282;2022-08-26T07:12:32;4.47;;;2.35;;
47353;SDS011;50657;48.830;2.282;2022-08-26T07:15:00;3.95;;;2.60;;
47353;SDS011;50657;48.830;2.282;2022-08-26T07:17:27;4.72;;;2.58;;
47353;SDS011;50657;48.830;2.282;2022-08-26T07:19:54;3.85;;;2.42;;
47353;SDS011;50657;48.830;2.282;2022-08-26T07:22:21;3.13;;;2.20;;
47353;SDS011;50657;48.830;2.282;2022-08-26T07:24:48;5.65;;;3.05;;
47353;SDS011;50657;48.830;2.282;2022-08-26T07:27:15;2.88;;;2.55;;
47353;SDS011;50657;48.830;2.282;2022-08-26T07:29:44;3.90;;;2.47;;
47353;SDS011;50657;48.830;2.282;2022-08-26T07:32:11;2.78;;;2.53;;
47353;SDS011;50657;48.830;2.282;2022-08-26T07:34:40;2.88;;;1.92;;
47353;SDS011;50657;48.830;2.282;2022-08-26T07:37:07;2.28;;;2.00;;
47353;SDS011;50657;48.830;2.282;2022-08-26T07:39:34;1.38;;;1.33;;
47353;SDS011;50657;48.830;2.282;2022-08-26T07:42:02;1.40;;;1.33;;
47353;SDS011;50657;48.830;2.282;2022-08-26T07:44:31;1.13;;;1.10;;
47353;SDS011;50657;48.830;2.282;2022-08-26T07:47:00;2.33;;;1.95;;
47353;SDS011;50657;48.830;2.282;2022-08-26T07:49:27;3.85;;;1.95;;
47353;SDS011;50657;48.830;2.282;2022-08-26T07:51:54;2.80;;;1.58;;
47353;SDS011;50657;48.830;2.282;2022-08-26T07:54:21;1.67;;;0.82;;
47353;SDS011;50657;48.830;2.282;2022-08-26T07:56:49;2.72;;;0.88;;
47353;SDS011;50657;48.830;2.282;2022-08-26T07:59:17;1.48;;;0.90;;
47353;SDS011;50657;48.830;2.282;2022-08-26T08:01:45;2.70;;;1.13;;
47353;SDS011;50657;48.830;2.282;2022-08-26T08:04:14;1.92;;;1.17;;
47353;SDS011;50657;48.830;2.282;2022-08-26T08:06:42;2.22;;;1.38;;
47353;SDS011;50657;48.830;2.282;2022-08-26T08:09:10;2.60;;;1.90;;
47353;SDS011;50657;48.830;2.282;2022-08-26T08:11:39;2.72;;;1.23;;
47353;SDS011;50657;48.830;2.282;2022-08-26T08:14:06;3.05;;;1.02;;
47353;SDS011;50657;48.830;2.282;2022-08-26T08:16:34;1.52;;;1.08;;
47353;SDS011;50657;48.830;2.282;2022-08-26T08:19:01;2.67;;;1.75;;
47353;SDS011;50657;48.830;2.282;2022-08-26T08:21:30;5.35;;;1.17;;
47353;SDS011;50657;48.830;2.282;2022-08-26T08:23:57;3.90;;;1.17;;
47353;SDS011;50657;48.830;2.282;2022-08-26T08:26:25;1.88;;;0.93;;
47353;SDS011;50657;48.830;2.282;2022-08-26T08:28:56;3.28;;;0.93;;
47353;SDS011;50657;48.830;2.282;2022-08-26T08:31:24;2.67;;;0.85;;
47353;SDS011;50657;48.830;2.282;2022-08-26T08:33:52;1.00;;;0.82;;
47353;SDS011;50657;48.830;2.282;2022-08-26T08:36:19;0.57;;;0.47;;
47353;SDS011;50657;48.830;2.282;2022-08-26T08:38:48;0.90;;;0.90;;
47353;SDS011;50657;48.830;2.282;2022-08-26T08:41:17;2.90;;;0.47;;
47353;SDS011;50657;48.830;2.282;2022-08-26T08:43:57;1.95;;;0.93;;
47353;SDS011;50657;48.830;2.282;2022-08-26T08:46:27;3.80;;;0.75;;
47353;SDS011;50657;48.830;2.282;2022-08-26T08:48:55;0.60;;;0.43;;
47353;SDS011;50657;48.830;2.282;2022-08-26T08:51:30;2.13;;;0.32;;
47353;SDS011;50657;48.830;2.282;2022-08-26T08:54:05;0.60;;;0.60;;
47353;SDS011;50657;48.830;2.282;2022-08-26T08:56:34;0.75;;;0.30;;
47353;SDS011;50657;48.830;2.282;2022-08-26T08:59:10;0.93;;;0.80;;
47353;SDS011;50657;48.830;2.282;2022-08-26T09:01:42;1.15;;;0.63;;
47353;SDS011;50657;48.830;2.282;2022-08-26T09:04:33;3.13;;;0.28;;
47353;SDS011;50657;48.830;2.282;2022-08-26T09:07:17;2.75;;;0.70;;
47353;SDS011;50657;48.830;2.282;2022-08-26T09:09:48;1.42;;;1.20;;
47353;SDS011;50657;48.830;2.282;2022-08-26T09:12:19;2.40;;;0.70;;
47353;SDS011;50657;48.830;2.282;2022-08-26T09:14:49;4.57;;;1.98;;
47353;SDS011;50657;48.830;2.282;2022-08-26T09:17:19;1.70;;;0.68;;
47353;SDS011;50657;48.830;2.282;2022-08-26T09:19:57;3.28;;;0.98;;
47353;SDS011;50657;48.830;2.282;2022-08-26T09:22:33;4.00;;;0.55;;
47353;SDS011;50657;48.830;2.282;2022-08-26T09:25:05;1.70;;;0.70;;
47353;SDS011;50657;48.830;2.282;2022-08-26T09:27:38;1.10;;;0.45;;
47353;SDS011;50657;48.830;2.282;2022-08-26T09:30:08;2.83;;;0.57;;
47353;SDS011;50657;48.830;2.282;2022-08-26T09:32:38;3.50;;;0.55;;
47353;SDS011;50657;48.830;2.282;2022-08-26T09:35:07;8.05;;;1.55;;
47353;SDS011;50657;48.830;2.282;2022-08-26T09:37:48;4.85;;;0.40;;
47353;SDS011;50657;48.830;2.282;2022-08-26T09:40:23;2.67;;;0.40;;
47353;SDS011;50657;48.830;2.282;2022-08-26T09:43:13;6.85;;;0.80;;
47353;SDS011;50657;48.830;2.282;2022-08-26T09:45:45;4.10;;;0.35;;
47353;SDS011;50657;48.830;2.282;2022-08-26T09:48:22;2.30;;;0.52;;
47353;SDS011;50657;48.830;2.282;2022-08-26T09:50:52;4.07;;;0.30;;
47353;SDS011;50657;48.830;2.282;2022-08-26T09:53:21;0.75;;;0.57;;
47353;SDS011;50657;48.830;2.282;2022-08-26T09:56:09;1.75;;;0.40;;
47353;SDS011;50657;48.830;2.282;2022-08-26T09:58:39;0.30;;;0.30;;
47353;SDS011;50657;48.830;2.282;2022-08-26T10:01:07;4.00;;;0.70;;
47353;SDS011;50657;48.830;2.282;2022-08-26T10:03:41;0.90;;;0.80;;
47353;SDS011;50657;48.830;2.282;2022-08-26T10:06:19;4.78;;;0.75;;
47353;SDS011;50657;48.830;2.282;2022-08-26T10:08:51;0.82;;;0.60;;
47353;SDS011;50657;48.830;2.282;2022-08-26T10:11:23;2.05;;;0.30;;
47353;SDS011;50657;48.830;2.282;2022-08-26T10:13:57;2.10;;;0.57;;
47353;SDS011;50657;48.830;2.282;2022-08-26T10:16:29;1.38;;;0.40;;
47353;SDS011;50657;48.830;2.282;2022-08-26T10:19:03;2.10;;;0.50;;
47353;SDS011;50657;48.830;2.282;2022-08-26T10:21:34;1.20;;;0.50;;
47353;SDS011;50657;48.830;2.282;2022-08-26T10:24:04;2.65;;;0.60;;
47353;SDS011;50657;48.830;2.282;2022-08-26T10:26:37;2.30;;;0.50;;
47353;SDS011;50657;48.830;2.282;2022-08-26T10:29:09;0.75;;;0.20;;
47353;SDS011;50657;48.830;2.282;2022-08-26T10:31:41;0.85;;;0.30;;
47353;SDS011;50657;48.830;2.282;2022-08-26T10:34:13;1.08;;;0.60;;
47353;SDS011;50657;48.830;2.282;2022-08-26T10:36:45;3.45;;;0.45;;
47353;SDS011;50657;48.830;2.282;2022-08-26T10:39:19;0.90;;;0.63;;
47353;SDS011;50657;48.830;2.282;2022-08-26T10:41:54;2.72;;;0.68;;
47353;SDS011;50657;48.830;2.282;2022-08-26T10:44:25;1.27;;;0.30;;
47353;SDS011;50657;48.830;2.282;2022-08-26T10:46:54;3.22;;;0.38;;
47353;SDS011;50657;48.830;2.282;2022-08-26T10:49:26;1.98;;;0.38;;
47353;SDS011;50657;48.830;2.282;2022-08-26T10:51:55;2.22;;;0.45;;
47353;SDS011;50657;48.830;2.282;2022-08-26T10:54:30;1.15;;;0.43;;
47353;SDS011;50657;48.830;2.282;2022-08-26T10:57:06;0.30;;;0.20;;
47353;SDS011;50657;48.830;2.282;2022-08-26T10:59:47;2.28;;;0.80;;
47353;SDS011;50657;48.830;2.282;2022-08-26T11:02:29;0.73;;;0.35;;
47353;SDS011;50657;48.830;2.282;2022-08-26T11:05:05;1.60;;;0.40;;
47353;SDS011;50657;48.830;2.282;2022-08-26T11:07:42;1.20;;;0.20;;
47353;SDS011;50657;48.830;2.282;2022-08-26T11:13:20;0.65;;;0.60;;
47353;SDS011;50657;48.830;2.282;2022-08-26T11:16:39;0.70;;;0.30;;
47353;SDS011;50657;48.830;2.282;2022-08-26T11:19:08;4.47;;;0.32;;
47353;SDS011;50657;48.830;2.282;2022-08-26T11:21:41;1.83;;;0.22;;
47353;SDS011;50657;48.830;2.282;2022-08-26T11:26:54;0.85;;;0.85;;
47353;SDS011;50657;48.830;2.282;2022-08-26T11:32:24;3.83;;;0.20;;
47353;SDS011;50657;48.830;2.282;2022-08-26T11:35:10;0.10;;;0.10;;
47353;SDS011;50657;48.830;2.282;2022-08-26T11:37:59;0.88;;;0.10;;
47353;SDS011;50657;48.830;2.282;2022-08-26T11:40:29;0.40;;;0.20;;
47353;SDS011;50657;48.830;2.282;2022-08-26T11:42:58;0.30;;;0.30;;
47353;SDS011;50657;48.830;2.282;2022-08-26T11:45:33;0.20;;;0.17;;
47353;SDS011;50657;48.830;2.282;2022-08-26T11:48:13;1.02;;;0.13;;
47353;SDS011;50657;48.830;2.282;2022-08-26T11:50:48;0.45;;;0.40;;
47353;SDS011;50657;48.830;2.282;2022-08-26T11:53:18;0.93;;;0.10;;
47353;SDS011;50657;48.830;2.282;2022-08-26T11:55:46;0.47;;;0.22;;
47353;SDS011;50657;48.830;2.282;2022-08-26T11:58:17;0.20;;;0.20;;
47353;SDS011;50657;48.830;2.282;2022-08-26T12:00:49;0.20;;;0.20;;
47353;SDS011;50657;48.830;2.282;2022-08-26T12:03:18;0.25;;;0.10;;
47353;SDS011;50657;48.830;2.282;2022-08-26T12:05:49;0.88;;;0.15;;
47353;SDS011;50657;48.830;2.282;2022-08-26T12:08:18;0.35;;;0.30;;
47353;SDS011;50657;48.830;2.282;2022-08-26T12:10:48;0.38;;;0.20;;
47353;SDS011;50657;48.830;2.282;2022-08-26T12:13:26;0.30;;;0.30;;
47353;SDS011;50657;48.830;2.282;2022-08-26T12:15:55;1.95;;;0.17;;
47353;SDS011;50657;48.830;2.282;2022-08-26T12:18:24;0.75;;;0.20;;
47353;SDS011;50657;48.830;2.282;2022-08-26T12:20:55;0.73;;;0.30;;
47353;SDS011;50657;48.830;2.282;2022-08-26T12:23:25;2.03;;;0.20;;
47353;SDS011;50657;48.830;2.282;2022-08-26T12:26:03;1.58;;;0.75;;
47353;SDS011;50657;48.830;2.282;2022-08-26T12:28:33;0.45;;;0.30;;
47353;SDS011;50657;48.830;2.282;2022-08-26T12:31:09;2.50;;;0.10;;
47353;SDS011;50657;48.830;2.282;2022-08-26T12:33:36;0.65;;;0.20;;
47353;SDS011;50657;48.830;2.282;2022-08-26T12:36:04;0.93;;;0.75;;
47353;SDS011;50657;48.830;2.282;2022-08-26T12:38:31;0.70;;;0.15;;
47353;SDS011;50657;48.830;2.282;2022-08-26T12:41:02;1.52;;;0.10;;
47353;SDS011;50657;48.830;2.282;2022-08-26T12:43:36;0.60;;;0.47;;
47353;SDS011;50657;48.830;2.282;2022-08-26T12:46:06;4.15;;;0.22;;
47353;SDS011;50657;48.830;2.282;2022-08-26T12:48:37;8.20;;;0.82;;
47353;SDS011;50657;48.830;2.282;2022-08-26T12:51:14;3.53;;;0.30;;
47353;SDS011;50657;48.830;2.282;2022-08-26T12:53:47;2.00;;;0.20;;
47353;SDS011;50657;48.830;2.282;2022-08-26T12:56:18;7.82;;;0.68;;
47353;SDS011;50657;48.830;2.282;2022-08-26T13:01:47;0.20;;;0.10;;
47353;SDS011;50657;48.830;2.282;2022-08-26T13:04:35;1.38;;;0.30;;
47353;SDS011;50657;48.830;2.282;2022-08-26T13:07:10;0.47;;;0.10;;
47353;SDS011;50657;48.830;2.282;2022-08-26T13:09:46;1.10;;;0.20;;
47353;SDS011;50657;48.830;2.282;2022-08-26T13:12:22;1.67;;;0.30;;
47353;SDS011;50657;48.830;2.282;2022-08-26T13:14:50;3.38;;;0.20;;
47353;SDS011;50657;48.830;2.282;2022-08-26T13:17:19;0.82;;;0.22;;
47353;SDS011;50657;48.830;2.282;2022-08-26T13:19:46;0.65;;;0.20;;
47353;SDS011;50657;48.830;2.282;2022-08-26T13:22:19;0.75;;;0.10;;
47353;SDS011;50657;48.830;2.282;2022-08-26T13:24:48;0.10;;;0.10;;
47353;SDS011;50657;48.830;2.282;2022-08-26T13:27:18;1.98;;;0.40;;
47353;SDS011;50657;48.830;2.282;2022-08-26T13:29:48;0.50;;;0.43;;
47353;SDS011;50657;48.830;2.282;2022-08-26T13:32:16;2.28;;;0.25;;
47353;SDS011;50657;48.830;2.282;2022-08-26T13:34:47;0.30;;;0.30;;
47353;SDS011;50657;48.830;2.282;2022-08-26T13:37:15;1.58;;;0.30;;
47353;SDS011;50657;48.830;2.282;2022-08-26T13:39:43;1.17;;;0.50;;
47353;SDS011;50657;48.830;2.282;2022-08-26T13:42:10;0.63;;;0.10;;
47353;SDS011;50657;48.830;2.282;2022-08-26T13:44:38;0.20;;;0.20;;
47353;SDS011;50657;48.830;2.282;2022-08-26T13:47:07;2.15;;;1.23;;
47353;SDS011;50657;48.830;2.282;2022-08-26T13:49:34;2.17;;;0.40;;
47353;SDS011;50657;48.830;2.282;2022-08-26T13:52:03;0.57;;;0.30;;
47353;SDS011;50657;48.830;2.282;2022-08-26T13:54:30;0.13;;;0.13;;
47353;SDS011;50657;48.830;2.282;2022-08-26T13:56:57;0.35;;;0.30;;
47353;SDS011;50657;48.830;2.282;2022-08-26T13:59:24;0.32;;;0.20;;
47353;SDS011;50657;48.830;2.282;2022-08-26T14:01:51;1.08;;;0.15;;
47353;SDS011;50657;48.830;2.282;2022-08-26T14:04:18;0.90;;;0.60;;
47353;SDS011;50657;48.830;2.282;2022-08-26T14:06:46;2.78;;;0.30;;
47353;SDS011;50657;48.830;2.282;2022-08-26T14:09:14;2.55;;;0.55;;
47353;SDS011;50657;48.830;2.282;2022-08-26T14:11:41;0.68;;;0.20;;
47353;SDS011;50657;48.830;2.282;2022-08-26T14:14:08;0.45;;;0.45;;
47353;SDS011;50657;48.830;2.282;2022-08-26T14:16:36;0.20;;;0.20;;
47353;SDS011;50657;48.830;2.282;2022-08-26T14:19:04;0.90;;;0.20;;
47353;SDS011;50657;48.830;2.282;2022-08-26T14:21:34;1.00;;;0.55;;
47353;SDS011;50657;48.830;2.282;2022-08-26T14:24:02;1.65;;;0.20;;
47353;SDS011;50657;48.830;2.282;2022-08-26T14:26:31;0.25;;;0.17;;
47353;SDS011;50657;48.830;2.282;2022-08-26T14:28:58;0.22;;;0.20;;
47353;SDS011;50657;48.830;2.282;2022-08-26T14:31:27;1.85;;;0.40;;
47353;SDS011;50657;48.830;2.282;2022-08-26T14:33:56;3.63;;;0.20;;
47353;SDS011;50657;48.830;2.282;2022-08-26T14:36:23;3.58;;;0.35;;
47353;SDS011;50657;48.830;2.282;2022-08-26T14:38:53;0.25;;;0.17;;
47353;SDS011;50657;48.830;2.282;2022-08-26T14:41:22;1.38;;;0.47;;
47353;SDS011;50657;48.830;2.282;2022-08-26T14:43:52;2.40;;;0.10;;
47353;SDS011;50657;48.830;2.282;2022-08-26T14:46:24;2.63;;;0.30;;
47353;SDS011;50657;48.830;2.282;2022-08-26T14:48:53;4.30;;;0.10;;
47353;SDS011;50657;48.830;2.282;2022-08-26T14:51:21;0.17;;;0.17;;
47353;SDS011;50657;48.830;2.282;2022-08-26T14:53:49;1.38;;;0.20;;
47353;SDS011;50657;48.830;2.282;2022-08-26T14:56:34;2.05;;;0.20;;
47353;SDS011;50657;48.830;2.282;2022-08-26T14:59:04;0.55;;;0.52;;
47353;SDS011;50657;48.830;2.282;2022-08-26T15:01:31;2.50;;;0.35;;
47353;SDS011;50657;48.830;2.282;2022-08-26T15:03:59;0.52;;;0.52;;
47353;SDS011;50657;48.830;2.282;2022-08-26T15:06:27;0.40;;;0.20;;
47353;SDS011;50657;48.830;2.282;2022-08-26T15:08:56;0.43;;;0.10;;
47353;SDS011;50657;48.830;2.282;2022-08-26T15:11:23;1.20;;;0.10;;
47353;SDS011;50657;48.830;2.282;2022-08-26T15:13:51;0.30;;;0.10;;
47353;SDS011;50657;48.830;2.282;2022-08-26T15:16:19;0.63;;;0.10;;